sensor_id;sensor_type;location;lat;lon;timestamp;temperature;humidity
60234;DHT22;49514;43.538;-5.708;2023-02-28T00:00:35;8.20;99.80
60234;DHT22;49514;43.538;-5.708;2023-02-28T00:03:03;8.20;99.90
60234;DHT22;49514;43.538;-5.708;2023-02-28T00:05:29;8.10;99.90
60234;DHT22;49514;43.538;-5.708;2023-02-28T00:07:56;8.10;99.90
60234;DHT22;49514;43.538;-5.708;2023-02-28T00:10:28;8.10;99.90
60234;DHT22;49514;43.538;-5.708;2023-02-28T00:13:00;8.10;99.90
60234;DHT22;49514;43.538;-5.708;2023-02-28T00:15:27;8.20;99.90
60234;DHT22;49514;43.538;-5.708;2023-02-28T00:17:55;8.20;99.90
60234;DHT22;49514;43.538;-5.708;2023-02-28T00:20:21;8.20;99.90
60234;DHT22;49514;43.538;-5.708;2023-02-28T00:22:50;8.20;99.90
60234;DHT22;49514;43.538;-5.708;2023-02-28T00:25:20;8.10;99.90
60234;DHT22;49514;43.538;-5.708;2023-02-28T00:27:47;8.10;99.90
60234;DHT22;49514;43.538;-5.708;2023-02-28T00:30:18;8.10;99.90
60234;DHT22;49514;43.538;-5.708;2023-02-28T00:32:45;8.10;99.90
60234;DHT22;49514;43.538;-5.708;2023-02-28T00:35:12;8.00;99.90
60234;DHT22;49514;43.538;-5.708;2023-02-28T00:37:41;8.00;99.90
60234;DHT22;49514;43.538;-5.708;2023-02-28T00:40:11;8.00;99.90
60234;DHT22;49514;43.538;-5.708;2023-02-28T00:42:39;7.90;99.90
60234;DHT22;49514;43.538;-5.708;2023-02-28T00:45:06;8.00;99.90
60234;DHT22;49514;43.538;-5.708;2023-02-28T00:47:34;8.00;99.90
60234;DHT22;49514;43.538;-5.708;2023-02-28T00:50:02;8.00;99.90
60234;DHT22;49514;43.538;-5.708;2023-02-28T00:52:28;8.10;99.90
60234;DHT22;49514;43.538;-5.708;2023-02-28T00:54:55;8.00;99.90
60234;DHT22;49514;43.538;-5.708;2023-02-28T00:57:22;8.00;99.90
60234;DHT22;49514;43.538;-5.708;2023-02-28T01:00:00;8.00;99.90
60234;DHT22;49514;43.538;-5.708;2023-02-28T01:02:27;8.00;99.90
60234;DHT22;49514;43.538;-5.708;2023-02-28T01:04:54;8.10;99.90
60234;DHT22;49514;43.538;-5.708;2023-02-28T01:07:21;8.10;99.90
60234;DHT22;49514;43.538;-5.708;2023-02-28T01:09:47;8.10;99.90
60234;DHT22;49514;43.538;-5.708;2023-02-28T01:12:14;8.00;99.90
60234;DHT22;49514;43.538;-5.708;2023-02-28T01:14:41;8.10;99.90
60234;DHT22;49514;43.538;-5.708;2023-02-28T01:17:08;8.00;99.90
60234;DHT22;49514;43.538;-5.708;2023-02-28T01:19:35;8.00;99.90
60234;DHT22;49514;43.538;-5.708;2023-02-28T01:22:06;8.10;99.90
60234;DHT22;49514;43.538;-5.708;2023-02-28T01:24:34;8.00;99.90
60234;DHT22;49514;43.538;-5.708;2023-02-28T01:27:01;8.00;99.90
60234;DHT22;49514;43.538;-5.708;2023-02-28T01:29:28;8.00;99.90
60234;DHT22;49514;43.538;-5.708;2023-02-28T01:31:55;8.00;99.90
60234;DHT22;49514;43.538;-5.708;2023-02-28T01:34:23;8.00;99.90
60234;DHT22;49514;43.538;-5.708;2023-02-28T01:36:51;7.90;99.90
60234;DHT22;49514;43.538;-5.708;2023-02-28T01:39:19;7.90;99.90
60234;DHT22;49514;43.538;-5.708;2023-02-28T01:41:45;8.00;99.90
60234;DHT22;49514;43.538;-5.708;2023-02-28T01:47:16;7.90;99.90
60234;DHT22;49514;43.538;-5.708;2023-02-28T01:49:43;7.80;99.90
60234;DHT22;49514;43.538;-5.708;2023-02-28T01:52:11;7.70;99.90
60234;DHT22;49514;43.538;-5.708;2023-02-28T01:54:54;7.70;99.90
60234;DHT22;49514;43.538;-5.708;2023-02-28T01:57:29;7.70;99.90
60234;DHT22;49514;43.538;-5.708;2023-02-28T02:00:03;7.70;99.90
60234;DHT22;49514;43.538;-5.708;2023-02-28T02:02:41;7.70;99.90
60234;DHT22;49514;43.538;-5.708;2023-02-28T02:05:16;7.80;99.90
60234;DHT22;49514;43.538;-5.708;2023-02-28T02:07:45;7.70;99.90
60234;DHT22;49514;43.538;-5.708;2023-02-28T02:10:19;7.70;99.90
60234;DHT22;49514;43.538;-5.708;2023-02-28T02:15:46;7.70;99.90
60234;DHT22;49514;43.538;-5.708;2023-02-28T02:35:12;7.80;99.90
60234;DHT22;49514;43.538;-5.708;2023-02-28T02:37:52;7.80;99.90
60234;DHT22;49514;43.538;-5.708;2023-02-28T02:40:35;7.70;99.90
60234;DHT22;49514;43.538;-5.708;2023-02-28T02:43:11;7.70;99.90
60234;DHT22;49514;43.538;-5.708;2023-02-28T02:45:55;7.70;99.90
60234;DHT22;49514;43.538;-5.708;2023-02-28T02:48:27;7.70;99.90
60234;DHT22;49514;43.538;-5.708;2023-02-28T02:51:01;7.70;99.90
60234;DHT22;49514;43.538;-5.708;2023-02-28T02:53:36;7.70;99.90
60234;DHT22;49514;43.538;-5.708;2023-02-28T02:56:04;7.70;99.90
60234;DHT22;49514;43.538;-5.708;2023-02-28T02:58:37;7.60;99.90
60234;DHT22;49514;43.538;-5.708;2023-02-28T03:01:14;7.60;99.90
60234;DHT22;49514;43.538;-5.708;2023-02-28T03:03:43;7.60;99.90
60234;DHT22;49514;43.538;-5.708;2023-02-28T03:06:10;7.50;99.90
60234;DHT22;49514;43.538;-5.708;2023-02-28T03:08:38;7.50;99.90
60234;DHT22;49514;43.538;-5.708;2023-02-28T03:11:07;7.50;99.90
60234;DHT22;49514;43.538;-5.708;2023-02-28T03:19:48;7.50;99.90
60234;DHT22;49514;43.538;-5.708;2023-02-28T03:30:22;7.40;99.90
60234;DHT22;49514;43.538;-5.708;2023-02-28T03:32:56;7.40;99.90
60234;DHT22;49514;43.538;-5.708;2023-02-28T03:35:26;7.40;99.90
60234;DHT22;49514;43.538;-5.708;2023-02-28T03:38:00;7.40;99.90
60234;DHT22;49514;43.538;-5.708;2023-02-28T03:40:33;7.40;99.90
60234;DHT22;49514;43.538;-5.708;2023-02-28T03:43:04;7.40;99.90
60234;DHT22;49514;43.538;-5.708;2023-02-28T03:45:37;7.30;99.90
60234;DHT22;49514;43.538;-5.708;2023-02-28T03:49:11;7.30;99.90
60234;DHT22;49514;43.538;-5.708;2023-02-28T03:51:19;7.30;99.90
60234;DHT22;49514;43.538;-5.708;2023-02-28T03:53:52;7.20;99.90
60234;DHT22;49514;43.538;-5.708;2023-02-28T03:56:24;7.20;99.90
60234;DHT22;49514;43.538;-5.708;2023-02-28T04:01:49;7.20;99.90
60234;DHT22;49514;43.538;-5.708;2023-02-28T04:04:17;7.20;99.90
60234;DHT22;49514;43.538;-5.708;2023-02-28T04:06:44;7.20;99.90
60234;DHT22;49514;43.538;-5.708;2023-02-28T04:09:13;7.20;99.90
60234;DHT22;49514;43.538;-5.708;2023-02-28T04:11:45;7.20;99.90
60234;DHT22;49514;43.538;-5.708;2023-02-28T04:14:13;7.20;99.90
60234;DHT22;49514;43.538;-5.708;2023-02-28T04:16:41;7.20;99.90
60234;DHT22;49514;43.538;-5.708;2023-02-28T04:19:09;7.20;99.90
60234;DHT22;49514;43.538;-5.708;2023-02-28T04:21:39;7.20;99.90
60234;DHT22;49514;43.538;-5.708;2023-02-28T04:24:08;7.20;99.90
60234;DHT22;49514;43.538;-5.708;2023-02-28T04:26:37;7.20;99.90
60234;DHT22;49514;43.538;-5.708;2023-02-28T04:29:06;7.20;99.90
60234;DHT22;49514;43.538;-5.708;2023-02-28T04:31:34;7.20;99.90
60234;DHT22;49514;43.538;-5.708;2023-02-28T04:34:01;7.20;99.90
60234;DHT22;49514;43.538;-5.708;2023-02-28T04:36:28;7.30;99.90
60234;DHT22;49514;43.538;-5.708;2023-02-28T04:38:55;7.30;99.90
60234;DHT22;49514;43.538;-5.708;2023-02-28T04:41:22;7.30;99.90
60234;DHT22;49514;43.538;-5.708;2023-02-28T04:43:51;7.30;99.90
60234;DHT22;49514;43.538;-5.708;2023-02-28T04:46:18;7.30;99.90
60234;DHT22;49514;43.538;-5.708;2023-02-28T04:48:45;7.30;99.90
60234;DHT22;49514;43.538;-5.708;2023-02-28T04:51:14;7.30;99.90
60234;DHT22;49514;43.538;-5.708;2023-02-28T04:53:42;7.30;99.90
60234;DHT22;49514;43.538;-5.708;2023-02-28T04:56:12;7.30;99.90
60234;DHT22;49514;43.538;-5.708;2023-02-28T04:58:39;7.30;99.90
60234;DHT22;49514;43.538;-5.708;2023-02-28T05:01:15;7.20;99.90
60234;DHT22;49514;43.538;-5.708;2023-02-28T05:03:43;7.20;99.90
60234;DHT22;49514;43.538;-5.708;2023-02-28T05:06:11;7.20;99.90
60234;DHT22;49514;43.538;-5.708;2023-02-28T05:08:39;7.20;99.90
60234;DHT22;49514;43.538;-5.708;2023-02-28T05:11:13;7.20;99.90
60234;DHT22;49514;43.538;-5.708;2023-02-28T05:13:40;7.20;99.90
60234;DHT22;49514;43.538;-5.708;2023-02-28T05:16:07;7.20;99.90
60234;DHT22;49514;43.538;-5.708;2023-02-28T05:18:33;7.20;99.90
60234;DHT22;49514;43.538;-5.708;2023-02-28T05:21:00;7.20;99.90
60234;DHT22;49514;43.538;-5.708;2023-02-28T05:23:30;7.20;99.90
60234;DHT22;49514;43.538;-5.708;2023-02-28T05:25:56;7.20;99.90
60234;DHT22;49514;43.538;-5.708;2023-02-28T05:28:23;7.20;99.90
60234;DHT22;49514;43.538;-5.708;2023-02-28T05:30:50;7.10;99.90
60234;DHT22;49514;43.538;-5.708;2023-02-28T05:33:16;7.10;99.90
60234;DHT22;49514;43.538;-5.708;2023-02-28T05:35:43;7.10;99.90
60234;DHT22;49514;43.538;-5.708;2023-02-28T05:38:10;7.10;99.90
60234;DHT22;49514;43.538;-5.708;2023-02-28T05:40:38;7.10;99.90
60234;DHT22;49514;43.538;-5.708;2023-02-28T05:43:05;7.10;99.90
60234;DHT22;49514;43.538;-5.708;2023-02-28T05:45:32;7.10;99.90
60234;DHT22;49514;43.538;-5.708;2023-02-28T05:47:59;7.10;99.90
60234;DHT22;49514;43.538;-5.708;2023-02-28T05:50:25;7.10;99.90
60234;DHT22;49514;43.538;-5.708;2023-02-28T05:52:52;7.00;99.90
60234;DHT22;49514;43.538;-5.708;2023-02-28T05:55:19;7.10;99.90
60234;DHT22;49514;43.538;-5.708;2023-02-28T05:57:45;7.00;99.90
60234;DHT22;49514;43.538;-5.708;2023-02-28T06:00:13;7.00;99.90
60234;DHT22;49514;43.538;-5.708;2023-02-28T06:02:41;7.10;99.90
60234;DHT22;49514;43.538;-5.708;2023-02-28T06:07:40;7.00;99.90
60234;DHT22;49514;43.538;-5.708;2023-02-28T06:10:07;7.00;99.90
60234;DHT22;49514;43.538;-5.708;2023-02-28T06:12:34;7.00;99.90
60234;DHT22;49514;43.538;-5.708;2023-02-28T06:15:01;7.00;99.90
60234;DHT22;49514;43.538;-5.708;2023-02-28T06:17:27;7.10;99.90
60234;DHT22;49514;43.538;-5.708;2023-02-28T06:19:54;7.00;99.90
60234;DHT22;49514;43.538;-5.708;2023-02-28T06:22:21;7.10;99.90
60234;DHT22;49514;43.538;-5.708;2023-02-28T06:24:47;7.00;99.90
60234;DHT22;49514;43.538;-5.708;2023-02-28T06:27:14;7.10;99.90
60234;DHT22;49514;43.538;-5.708;2023-02-28T06:29:40;7.00;99.90
60234;DHT22;49514;43.538;-5.708;2023-02-28T06:32:07;7.00;99.90
60234;DHT22;49514;43.538;-5.708;2023-02-28T06:34:34;7.10;99.90
60234;DHT22;49514;43.538;-5.708;2023-02-28T06:37:02;7.00;99.90
60234;DHT22;49514;43.538;-5.708;2023-02-28T06:39:30;7.00;99.90
60234;DHT22;49514;43.538;-5.708;2023-02-28T06:44:24;7.00;99.90
60234;DHT22;49514;43.538;-5.708;2023-02-28T06:46:51;7.10;99.90
60234;DHT22;49514;43.538;-5.708;2023-02-28T06:49:18;7.10;99.90
60234;DHT22;49514;43.538;-5.708;2023-02-28T06:51:45;7.10;99.90
60234;DHT22;49514;43.538;-5.708;2023-02-28T06:54:12;7.10;99.90
60234;DHT22;49514;43.538;-5.708;2023-02-28T06:56:39;7.10;99.90
60234;DHT22;49514;43.538;-5.708;2023-02-28T06:59:06;7.10;99.90
60234;DHT22;49514;43.538;-5.708;2023-02-28T07:01:32;7.10;99.90
60234;DHT22;49514;43.538;-5.708;2023-02-28T07:03:59;7.10;99.90
60234;DHT22;49514;43.538;-5.708;2023-02-28T07:06:27;7.10;99.90
60234;DHT22;49514;43.538;-5.708;2023-02-28T07:08:54;7.10;99.90
60234;DHT22;49514;43.538;-5.708;2023-02-28T07:11:23;7.10;99.90
60234;DHT22;49514;43.538;-5.708;2023-02-28T07:13:55;7.10;99.90
60234;DHT22;49514;43.538;-5.708;2023-02-28T07:16:23;7.10;99.90
60234;DHT22;49514;43.538;-5.708;2023-02-28T07:18:54;7.10;99.90
60234;DHT22;49514;43.538;-5.708;2023-02-28T07:21:22;7.10;99.90
60234;DHT22;49514;43.538;-5.708;2023-02-28T07:23:49;7.10;99.90
60234;DHT22;49514;43.538;-5.708;2023-02-28T07:26:18;7.10;99.90
60234;DHT22;49514;43.538;-5.708;2023-02-28T07:28:47;7.10;99.90
60234;DHT22;49514;43.538;-5.708;2023-02-28T07:31:14;7.10;99.90
60234;DHT22;49514;43.538;-5.708;2023-02-28T07:33:41;7.10;99.90
60234;DHT22;49514;43.538;-5.708;2023-02-28T07:36:11;7.20;99.90
60234;DHT22;49514;43.538;-5.708;2023-02-28T07:38:43;7.10;99.90
60234;DHT22;49514;43.538;-5.708;2023-02-28T07:41:10;7.20;99.90
60234;DHT22;49514;43.538;-5.708;2023-02-28T07:43:37;7.20;99.90
60234;DHT22;49514;43.538;-5.708;2023-02-28T07:46:06;7.20;99.90
60234;DHT22;49514;43.538;-5.708;2023-02-28T07:48:33;7.30;99.90
60234;DHT22;49514;43.538;-5.708;2023-02-28T07:51:00;7.30;99.90
60234;DHT22;49514;43.538;-5.708;2023-02-28T07:53:27;7.30;99.90
60234;DHT22;49514;43.538;-5.708;2023-02-28T07:55:56;7.30;99.90
60234;DHT22;49514;43.538;-5.708;2023-02-28T07:58:23;7.30;99.90
60234;DHT22;49514;43.538;-5.708;2023-02-28T08:00:50;7.40;99.90
60234;DHT22;49514;43.538;-5.708;2023-02-28T08:03:18;7.40;99.90
60234;DHT22;49514;43.538;-5.708;2023-02-28T08:05:45;7.40;99.90
60234;DHT22;49514;43.538;-5.708;2023-02-28T08:08:12;7.50;99.90
60234;DHT22;49514;43.538;-5.708;2023-02-28T08:10:38;7.50;99.90
60234;DHT22;49514;43.538;-5.708;2023-02-28T08:13:05;7.50;99.90
60234;DHT22;49514;43.538;-5.708;2023-02-28T08:15:32;7.50;99.90
60234;DHT22;49514;43.538;-5.708;2023-02-28T08:17:59;7.50;99.90
60234;DHT22;49514;43.538;-5.708;2023-02-28T08:20:26;7.50;99.90
60234;DHT22;49514;43.538;-5.708;2023-02-28T08:22:53;7.50;99.90
60234;DHT22;49514;43.538;-5.708;2023-02-28T08:25:20;7.50;99.90
60234;DHT22;49514;43.538;-5.708;2023-02-28T08:27:47;7.50;99.90
60234;DHT22;49514;43.538;-5.708;2023-02-28T08:30:14;7.60;99.90
60234;DHT22;49514;43.538;-5.708;2023-02-28T08:32:41;7.50;99.90
60234;DHT22;49514;43.538;-5.708;2023-02-28T08:35:08;7.60;99.90
60234;DHT22;49514;43.538;-5.708;2023-02-28T08:37:38;7.60;99.90
60234;DHT22;49514;43.538;-5.708;2023-02-28T08:40:05;7.70;99.90
60234;DHT22;49514;43.538;-5.708;2023-02-28T08:42:32;7.90;99.90
60234;DHT22;49514;43.538;-5.708;2023-02-28T08:45:15;8.00;99.90
60234;DHT22;49514;43.538;-5.708;2023-02-28T08:47:42;8.10;99.90
60234;DHT22;49514;43.538;-5.708;2023-02-28T08:50:09;8.10;99.90
60234;DHT22;49514;43.538;-5.708;2023-02-28T08:52:36;8.20;99.90
60234;DHT22;49514;43.538;-5.708;2023-02-28T08:55:05;8.20;99.90
60234;DHT22;49514;43.538;-5.708;2023-02-28T08:57:32;8.40;99.90
60234;DHT22;49514;43.538;-5.708;2023-02-28T09:00:00;8.40;99.90
60234;DHT22;49514;43.538;-5.708;2023-02-28T09:02:31;8.60;99.90
60234;DHT22;49514;43.538;-5.708;2023-02-28T09:04:58;8.60;99.90
60234;DHT22;49514;43.538;-5.708;2023-02-28T09:07:25;8.70;99.90
60234;DHT22;49514;43.538;-5.708;2023-02-28T09:09:52;8.80;99.90
60234;DHT22;49514;43.538;-5.708;2023-02-28T09:17:16;9.30;99.90
60234;DHT22;49514;43.538;-5.708;2023-02-28T09:19:43;9.30;99.90
60234;DHT22;49514;43.538;-5.708;2023-02-28T09:22:11;9.40;99.90
60234;DHT22;49514;43.538;-5.708;2023-02-28T09:24:38;9.60;99.90
60234;DHT22;49514;43.538;-5.708;2023-02-28T09:27:05;9.60;99.90
60234;DHT22;49514;43.538;-5.708;2023-02-28T09:29:33;9.60;99.00
60234;DHT22;49514;43.538;-5.708;2023-02-28T09:32:00;9.60;96.90
60234;DHT22;49514;43.538;-5.708;2023-02-28T09:39:24;9.70;99.90
60234;DHT22;49514;43.538;-5.708;2023-02-28T09:41:54;9.60;94.90
60234;DHT22;49514;43.538;-5.708;2023-02-28T09:44:37;9.60;94.70
60234;DHT22;49514;43.538;-5.708;2023-02-28T09:47:32;9.70;93.40
60234;DHT22;49514;43.538;-5.708;2023-02-28T09:53:06;9.70;92.40
60234;DHT22;49514;43.538;-5.708;2023-02-28T09:58:28;9.80;91.80
60234;DHT22;49514;43.538;-5.708;2023-02-28T10:01:12;9.80;91.00
60234;DHT22;49514;43.538;-5.708;2023-02-28T10:03:55;9.90;91.20
60234;DHT22;49514;43.538;-5.708;2023-02-28T10:06:29;9.90;90.50
60234;DHT22;49514;43.538;-5.708;2023-02-28T10:09:51;9.90;90.20
60234;DHT22;49514;43.538;-5.708;2023-02-28T10:12:09;10.10;90.00
60234;DHT22;49514;43.538;-5.708;2023-02-28T10:14:39;10.20;89.50
60234;DHT22;49514;43.538;-5.708;2023-02-28T10:17:13;10.30;89.60
60234;DHT22;49514;43.538;-5.708;2023-02-28T10:20:00;10.40;89.20
60234;DHT22;49514;43.538;-5.708;2023-02-28T10:24:58;10.80;90.50
60234;DHT22;49514;43.538;-5.708;2023-02-28T10:27:30;11.00;89.70
60234;DHT22;49514;43.538;-5.708;2023-02-28T10:30:01;11.30;88.70
60234;DHT22;49514;43.538;-5.708;2023-02-28T10:32:34;11.40;86.00
60234;DHT22;49514;43.538;-5.708;2023-02-28T10:37:36;11.70;84.00
60234;DHT22;49514;43.538;-5.708;2023-02-28T10:40:25;11.80;81.40
60234;DHT22;49514;43.538;-5.708;2023-02-28T10:43:03;11.80;81.50
60234;DHT22;49514;43.538;-5.708;2023-02-28T10:45:32;12.00;80.00
60234;DHT22;49514;43.538;-5.708;2023-02-28T10:48:05;12.10;80.80
60234;DHT22;49514;43.538;-5.708;2023-02-28T10:56:01;12.20;77.40
60234;DHT22;49514;43.538;-5.708;2023-02-28T11:01:16;12.30;75.90
60234;DHT22;49514;43.538;-5.708;2023-02-28T11:03:43;12.40;79.10
60234;DHT22;49514;43.538;-5.708;2023-02-28T11:06:16;12.10;77.10
60234;DHT22;49514;43.538;-5.708;2023-02-28T11:08:52;11.90;76.50
60234;DHT22;49514;43.538;-5.708;2023-02-28T11:11:21;11.80;77.10
60234;DHT22;49514;43.538;-5.708;2023-02-28T11:13:52;11.60;77.00
60234;DHT22;49514;43.538;-5.708;2023-02-28T11:16:20;11.60;77.10
60234;DHT22;49514;43.538;-5.708;2023-02-28T11:18:50;11.40;75.60
60234;DHT22;49514;43.538;-5.708;2023-02-28T11:23:47;11.20;75.60
60234;DHT22;49514;43.538;-5.708;2023-02-28T11:26:16;11.10;75.90
60234;DHT22;49514;43.538;-5.708;2023-02-28T11:29:17;11.20;77.40
60234;DHT22;49514;43.538;-5.708;2023-02-28T11:32:17;11.40;76.70
60234;DHT22;49514;43.538;-5.708;2023-02-28T11:34:46;11.50;77.00
60234;DHT22;49514;43.538;-5.708;2023-02-28T11:37:18;11.70;77.40
60234;DHT22;49514;43.538;-5.708;2023-02-28T11:39:45;11.90;78.30
60234;DHT22;49514;43.538;-5.708;2023-02-28T11:50:32;12.70;76.20
60234;DHT22;49514;43.538;-5.708;2023-02-28T11:53:17;12.60;75.30
60234;DHT22;49514;43.538;-5.708;2023-02-28T11:55:53;12.50;75.90
60234;DHT22;49514;43.538;-5.708;2023-02-28T12:01:13;12.20;75.30
60234;DHT22;49514;43.538;-5.708;2023-02-28T12:07:07;12.10;75.00
60234;DHT22;49514;43.538;-5.708;2023-02-28T12:11:56;12.00;75.10
60234;DHT22;49514;43.538;-5.708;2023-02-28T12:22:43;11.60;76.30
60234;DHT22;49514;43.538;-5.708;2023-02-28T12:27:59;11.70;76.30
60234;DHT22;49514;43.538;-5.708;2023-02-28T12:30:48;11.70;76.70
60234;DHT22;49514;43.538;-5.708;2023-02-28T12:33:19;11.80;77.30
60234;DHT22;49514;43.538;-5.708;2023-02-28T12:35:51;11.90;77.00
60234;DHT22;49514;43.538;-5.708;2023-02-28T12:38:28;11.80;76.30
60234;DHT22;49514;43.538;-5.708;2023-02-28T12:41:20;11.90;75.60
60234;DHT22;49514;43.538;-5.708;2023-02-28T12:44:06;11.70;74.20
60234;DHT22;49514;43.538;-5.708;2023-02-28T12:46:48;11.80;74.50
60234;DHT22;49514;43.538;-5.708;2023-02-28T12:49:41;11.80;74.60
60234;DHT22;49514;43.538;-5.708;2023-02-28T12:52:11;11.80;74.60
60234;DHT22;49514;43.538;-5.708;2023-02-28T12:54:57;11.70;73.90
60234;DHT22;49514;43.538;-5.708;2023-02-28T13:00:14;11.70;74.70
60234;DHT22;49514;43.538;-5.708;2023-02-28T13:14:04;11.80;73.70
60234;DHT22;49514;43.538;-5.708;2023-02-28T13:25:02;11.40;78.20
60234;DHT22;49514;43.538;-5.708;2023-02-28T13:27:50;11.30;79.40
60234;DHT22;49514;43.538;-5.708;2023-02-28T13:33:35;11.50;80.40
60234;DHT22;49514;43.538;-5.708;2023-02-28T13:44:19;11.90;79.40
60234;DHT22;49514;43.538;-5.708;2023-02-28T13:51:55;12.20;78.40
60234;DHT22;49514;43.538;-5.708;2023-02-28T13:57:25;12.50;78.00
60234;DHT22;49514;43.538;-5.708;2023-02-28T14:00:13;12.70;78.20
60234;DHT22;49514;43.538;-5.708;2023-02-28T14:05:37;12.80;76.40
60234;DHT22;49514;43.538;-5.708;2023-02-28T14:08:30;13.10;76.80
60234;DHT22;49514;43.538;-5.708;2023-02-28T14:11:15;13.30;76.20
60234;DHT22;49514;43.538;-5.708;2023-02-28T14:13:49;13.60;75.80
60234;DHT22;49514;43.538;-5.708;2023-02-28T14:16:21;14.10;75.30
60234;DHT22;49514;43.538;-5.708;2023-02-28T14:18:52;14.30;73.10
60234;DHT22;49514;43.538;-5.708;2023-02-28T14:21:36;14.60;74.20
60234;DHT22;49514;43.538;-5.708;2023-02-28T14:24:22;15.10;73.60
60234;DHT22;49514;43.538;-5.708;2023-02-28T14:35:00;15.70;68.30
60234;DHT22;49514;43.538;-5.708;2023-02-28T14:37:33;16.10;68.60
60234;DHT22;49514;43.538;-5.708;2023-02-28T14:40:04;16.70;68.60
60234;DHT22;49514;43.538;-5.708;2023-02-28T14:42:35;16.80;67.70
60234;DHT22;49514;43.538;-5.708;2023-02-28T14:45:05;17.00;67.60
60234;DHT22;49514;43.538;-5.708;2023-02-28T14:47:32;16.90;67.70
60234;DHT22;49514;43.538;-5.708;2023-02-28T14:50:04;16.70;65.90
60234;DHT22;49514;43.538;-5.708;2023-02-28T14:52:32;16.90;67.10
60234;DHT22;49514;43.538;-5.708;2023-02-28T14:55:05;19.10;68.50
60234;DHT22;49514;43.538;-5.708;2023-02-28T14:57:39;20.20;65.90
60234;DHT22;49514;43.538;-5.708;2023-02-28T15:00:37;20.00;61.80
60234;DHT22;49514;43.538;-5.708;2023-02-28T15:03:27;19.60;61.10
60234;DHT22;49514;43.538;-5.708;2023-02-28T15:05:58;18.80;59.90
60234;DHT22;49514;43.538;-5.708;2023-02-28T15:08:26;18.50;61.00
60234;DHT22;49514;43.538;-5.708;2023-02-28T15:13:42;18.30;62.80
60234;DHT22;49514;43.538;-5.708;2023-02-28T15:16:13;19.70;63.70
60234;DHT22;49514;43.538;-5.708;2023-02-28T15:18:53;20.70;59.10
60234;DHT22;49514;43.538;-5.708;2023-02-28T15:21:21;20.70;57.90
60234;DHT22;49514;43.538;-5.708;2023-02-28T15:23:50;21.10;59.30
60234;DHT22;49514;43.538;-5.708;2023-02-28T15:26:19;21.70;56.70
60234;DHT22;49514;43.538;-5.708;2023-02-28T15:28:47;22.10;58.00
60234;DHT22;49514;43.538;-5.708;2023-02-28T15:31:26;22.70;57.20
60234;DHT22;49514;43.538;-5.708;2023-02-28T15:33:55;24.20;55.50
60234;DHT22;49514;43.538;-5.708;2023-02-28T15:36:24;24.70;56.00
60234;DHT22;49514;43.538;-5.708;2023-02-28T15:38:51;24.70;53.40
60234;DHT22;49514;43.538;-5.708;2023-02-28T15:41:36;24.20;53.00
60234;DHT22;49514;43.538;-5.708;2023-02-28T15:44:26;23.70;52.30
60234;DHT22;49514;43.538;-5.708;2023-02-28T15:49:25;24.80;54.20
60234;DHT22;49514;43.538;-5.708;2023-02-28T15:51:52;26.00;53.10
60234;DHT22;49514;43.538;-5.708;2023-02-28T15:54:20;27.00;50.40
60234;DHT22;49514;43.538;-5.708;2023-02-28T15:56:51;27.30;50.00
60234;DHT22;49514;43.538;-5.708;2023-02-28T15:59:20;26.60;48.60
60234;DHT22;49514;43.538;-5.708;2023-02-28T16:01:47;25.00;49.50
60234;DHT22;49514;43.538;-5.708;2023-02-28T16:04:28;24.80;49.60
60234;DHT22;49514;43.538;-5.708;2023-02-28T16:09:24;22.20;49.20
60234;DHT22;49514;43.538;-5.708;2023-02-28T16:11:52;21.00;50.90
60234;DHT22;49514;43.538;-5.708;2023-02-28T16:14:20;19.90;51.50
60234;DHT22;49514;43.538;-5.708;2023-02-28T16:16:50;19.00;52.60
60234;DHT22;49514;43.538;-5.708;2023-02-28T16:19:18;18.20;52.90
60234;DHT22;49514;43.538;-5.708;2023-02-28T16:21:44;17.60;53.20
60234;DHT22;49514;43.538;-5.708;2023-02-28T16:24:11;17.10;54.30
60234;DHT22;49514;43.538;-5.708;2023-02-28T16:26:41;16.90;58.70
60234;DHT22;49514;43.538;-5.708;2023-02-28T16:29:09;16.30;58.50
60234;DHT22;49514;43.538;-5.708;2023-02-28T16:31:40;16.00;55.90
60234;DHT22;49514;43.538;-5.708;2023-02-28T16:34:06;15.80;56.20
60234;DHT22;49514;43.538;-5.708;2023-02-28T16:36:34;15.50;56.40
60234;DHT22;49514;43.538;-5.708;2023-02-28T16:39:00;15.30;56.80
60234;DHT22;49514;43.538;-5.708;2023-02-28T16:41:28;14.90;57.50
60234;DHT22;49514;43.538;-5.708;2023-02-28T16:43:55;14.70;57.70
60234;DHT22;49514;43.538;-5.708;2023-02-28T16:46:35;14.50;58.30
60234;DHT22;49514;43.538;-5.708;2023-02-28T16:49:02;14.20;58.40
60234;DHT22;49514;43.538;-5.708;2023-02-28T16:51:29;14.10;58.90
60234;DHT22;49514;43.538;-5.708;2023-02-28T16:53:56;13.90;59.20
60234;DHT22;49514;43.538;-5.708;2023-02-28T16:56:24;13.80;59.90
60234;DHT22;49514;43.538;-5.708;2023-02-28T16:58:51;13.50;60.30
60234;DHT22;49514;43.538;-5.708;2023-02-28T17:01:21;13.40;60.80
60234;DHT22;49514;43.538;-5.708;2023-02-28T17:03:49;13.20;60.70
60234;DHT22;49514;43.538;-5.708;2023-02-28T17:06:22;13.10;61.40
60234;DHT22;49514;43.538;-5.708;2023-02-28T17:08:50;13.00;61.60
60234;DHT22;49514;43.538;-5.708;2023-02-28T17:11:18;13.00;62.10
60234;DHT22;49514;43.538;-5.708;2023-02-28T17:13:45;12.90;62.10
60234;DHT22;49514;43.538;-5.708;2023-02-28T17:18:57;12.80;62.80
60234;DHT22;49514;43.538;-5.708;2023-02-28T17:21:25;12.60;62.40
60234;DHT22;49514;43.538;-5.708;2023-02-28T17:23:52;12.60;62.60
60234;DHT22;49514;43.538;-5.708;2023-02-28T17:26:20;12.40;62.90
60234;DHT22;49514;43.538;-5.708;2023-02-28T17:28:48;12.40;63.00
60234;DHT22;49514;43.538;-5.708;2023-02-28T17:31:17;12.40;62.70
60234;DHT22;49514;43.538;-5.708;2023-02-28T17:33:44;12.30;63.00
60234;DHT22;49514;43.538;-5.708;2023-02-28T17:36:22;12.40;63.30
60234;DHT22;49514;43.538;-5.708;2023-02-28T17:38:49;12.50;63.20
60234;DHT22;49514;43.538;-5.708;2023-02-28T17:41:16;12.40;63.50
60234;DHT22;49514;43.538;-5.708;2023-02-28T17:43:42;12.30;63.50
60234;DHT22;49514;43.538;-5.708;2023-02-28T17:46:17;12.20;63.70
60234;DHT22;49514;43.538;-5.708;2023-02-28T17:48:50;12.10;63.90
60234;DHT22;49514;43.538;-5.708;2023-02-28T17:51:19;12.10;63.90
60234;DHT22;49514;43.538;-5.708;2023-02-28T17:53:46;12.00;63.90
60234;DHT22;49514;43.538;-5.708;2023-02-28T17:56:21;11.90;64.30
60234;DHT22;49514;43.538;-5.708;2023-02-28T17:58:48;11.80;65.10
60234;DHT22;49514;43.538;-5.708;2023-02-28T18:01:17;11.70;65.30
60234;DHT22;49514;43.538;-5.708;2023-02-28T18:09:19;11.50;65.80
60234;DHT22;49514;43.538;-5.708;2023-02-28T18:11:52;11.40;66.70
60234;DHT22;49514;43.538;-5.708;2023-02-28T18:14:22;11.40;66.70
60234;DHT22;49514;43.538;-5.708;2023-02-28T18:16:51;11.30;66.10
60234;DHT22;49514;43.538;-5.708;2023-02-28T18:19:20;11.30;68.00
60234;DHT22;49514;43.538;-5.708;2023-02-28T18:21:50;11.20;67.60
60234;DHT22;49514;43.538;-5.708;2023-02-28T18:24:19;11.20;69.30
60234;DHT22;49514;43.538;-5.708;2023-02-28T18:26:47;11.10;68.70
60234;DHT22;49514;43.538;-5.708;2023-02-28T18:29:24;11.10;69.80
60234;DHT22;49514;43.538;-5.708;2023-02-28T18:31:53;11.10;70.10
60234;DHT22;49514;43.538;-5.708;2023-02-28T18:34:22;11.00;69.20
60234;DHT22;49514;43.538;-5.708;2023-02-28T18:36:50;10.90;69.90
60234;DHT22;49514;43.538;-5.708;2023-02-28T18:39:17;10.80;70.40